sensor_id;sensor_type;location;lat;lon;timestamp;P1;durP1;ratioP1;P2;durP2;ratioP2
21360;SDS011;10839;43.206;23.550;2023-04-06T00:00:00;27.58;;;15.55;;
21360;SDS011;10839;43.206;23.550;2023-04-06T00:02:26;25.35;;;15.70;;
21360;SDS011;10839;43.206;23.550;2023-04-06T00:04:52;26.17;;;14.77;;
21360;SDS011;10839;43.206;23.550;2023-04-06T00:07:18;25.58;;;15.18;;
21360;SDS011;10839;43.206;23.550;2023-04-06T00:09:45;24.55;;;15.63;;
21360;SDS011;10839;43.206;23.550;2023-04-06T00:12:10;24.92;;;15.38;;
21360;SDS011;10839;43.206;23.550;2023-04-06T00:14:36;25.52;;;15.45;;
21360;SDS011;10839;43.206;23.550;2023-04-06T00:17:02;25.88;;;15.13;;
21360;SDS011;10839;43.206;23.550;2023-04-06T00:19:28;26.90;;;15.88;;
21360;SDS011;10839;43.206;23.550;2023-04-06T00:21:54;28.25;;;16.00;;
21360;SDS011;10839;43.206;23.550;2023-04-06T00:24:20;27.65;;;16.77;;
21360;SDS011;10839;43.206;23.550;2023-04-06T00:26:45;30.55;;;17.27;;
21360;SDS011;10839;43.206;23.550;2023-04-06T00:29:11;30.42;;;17.52;;
21360;SDS011;10839;43.206;23.550;2023-04-06T00:31:38;28.42;;;15.82;;
21360;SDS011;10839;43.206;23.550;2023-04-06T00:34:05;30.50;;;16.83;;
21360;SDS011;10839;43.206;23.550;2023-04-06T00:36:31;26.52;;;15.95;;
21360;SDS011;10839;43.206;23.550;2023-04-06T00:38:57;25.85;;;15.77;;
21360;SDS011;10839;43.206;23.550;2023-04-06T00:41:23;25.75;;;16.33;;
21360;SDS011;10839;43.206;23.550;2023-04-06T00:43:50;26.08;;;15.25;;
21360;SDS011;10839;43.206;23.550;2023-04-06T00:46:16;20.73;;;14.50;;
21360;SDS011;10839;43.206;23.550;2023-04-06T00:48:42;25.45;;;15.18;;
21360;SDS011;10839;43.206;23.550;2023-04-06T00:51:08;21.92;;;14.23;;
21360;SDS011;10839;43.206;23.550;2023-04-06T00:53:34;24.25;;;14.68;;
21360;SDS011;10839;43.206;23.550;2023-04-06T00:56:01;23.95;;;14.15;;
21360;SDS011;10839;43.206;23.550;2023-04-06T00:58:31;23.45;;;14.00;;
21360;SDS011;10839;43.206;23.550;2023-04-06T01:01:04;26.27;;;15.57;;
21360;SDS011;10839;43.206;23.550;2023-04-06T01:03:33;25.42;;;14.85;;
21360;SDS011;10839;43.206;23.550;2023-04-06T01:05:58;22.20;;;13.38;;
21360;SDS011;10839;43.206;23.550;2023-04-06T01:08:32;23.70;;;14.15;;
21360;SDS011;10839;43.206;23.550;2023-04-06T01:11:11;21.88;;;14.05;;
21360;SDS011;10839;43.206;23.550;2023-04-06T01:13:37;21.42;;;14.63;;
21360;SDS011;10839;43.206;23.550;2023-04-06T01:16:06;20.73;;;12.95;;
21360;SDS011;10839;43.206;23.550;2023-04-06T01:18:51;23.30;;;14.25;;
21360;SDS011;10839;43.206;23.550;2023-04-06T01:21:30;22.02;;;13.77;;
21360;SDS011;10839;43.206;23.550;2023-04-06T01:24:11;21.73;;;13.88;;
21360;SDS011;10839;43.206;23.550;2023-04-06T01:26:56;24.42;;;14.95;;
21360;SDS011;10839;43.206;23.550;2023-04-06T01:29:24;20.67;;;13.35;;
21360;SDS011;10839;43.206;23.550;2023-04-06T01:31:50;21.25;;;14.15;;
21360;SDS011;10839;43.206;23.550;2023-04-06T01:34:16;26.23;;;15.35;;
21360;SDS011;10839;43.206;23.550;2023-04-06T01:36:42;22.08;;;14.02;;
21360;SDS011;10839;43.206;23.550;2023-04-06T01:39:27;25.73;;;15.07;;
21360;SDS011;10839;43.206;23.550;2023-04-06T01:41:54;27.55;;;15.23;;
21360;SDS011;10839;43.206;23.550;2023-04-06T01:44:21;25.45;;;13.90;;
21360;SDS011;10839;43.206;23.550;2023-04-06T01:46:54;27.45;;;15.80;;
21360;SDS011;10839;43.206;23.550;2023-04-06T01:49:21;25.52;;;15.73;;
21360;SDS011;10839;43.206;23.550;2023-04-06T01:51:53;28.25;;;17.50;;
21360;SDS011;10839;43.206;23.550;2023-04-06T01:54:19;31.25;;;16.60;;
21360;SDS011;10839;43.206;23.550;2023-04-06T01:57:05;23.90;;;15.50;;
21360;SDS011;10839;43.206;23.550;2023-04-06T01:59:39;104.70;;;50.78;;
21360;SDS011;10839;43.206;23.550;2023-04-06T02:02:12;82.57;;;40.17;;
21360;SDS011;10839;43.206;23.550;2023-04-06T02:04:41;57.33;;;31.23;;
21360;SDS011;10839;43.206;23.550;2023-04-06T02:07:12;54.85;;;27.38;;
21360;SDS011;10839;43.206;23.550;2023-04-06T02:09:38;97.13;;;43.80;;
21360;SDS011;10839;43.206;23.550;2023-04-06T02:12:09;52.75;;;28.15;;
21360;SDS011;10839;43.206;23.550;2023-04-06T02:14:35;31.42;;;17.08;;
21360;SDS011;10839;43.206;23.550;2023-04-06T02:17:00;25.98;;;15.27;;
21360;SDS011;10839;43.206;23.550;2023-04-06T02:19:26;23.48;;;14.80;;
21360;SDS011;10839;43.206;23.550;2023-04-06T02:21:53;32.08;;;16.08;;
21360;SDS011;10839;43.206;23.550;2023-04-06T02:24:19;52.63;;;27.77;;
21360;SDS011;10839;43.206;23.550;2023-04-06T02:26:44;31.27;;;17.90;;
21360;SDS011;10839;43.206;23.550;2023-04-06T02:29:10;34.45;;;19.13;;
21360;SDS011;10839;43.206;23.550;2023-04-06T02:31:37;26.25;;;16.05;;
21360;SDS011;10839;43.206;23.550;2023-04-06T02:34:04;27.20;;;16.08;;
21360;SDS011;10839;43.206;23.550;2023-04-06T02:36:31;24.13;;;15.48;;
21360;SDS011;10839;43.206;23.550;2023-04-06T02:38:57;41.58;;;23.35;;
21360;SDS011;10839;43.206;23.550;2023-04-06T02:41:23;180.88;;;80.93;;
21360;SDS011;10839;43.206;23.550;2023-04-06T02:43:49;105.82;;;49.72;;
21360;SDS011;10839;43.206;23.550;2023-04-06T02:46:26;40.50;;;21.45;;
21360;SDS011;10839;43.206;23.550;2023-04-06T02:48:52;32.65;;;17.40;;
21360;SDS011;10839;43.206;23.550;2023-04-06T02:51:18;25.58;;;15.13;;
21360;SDS011;10839;43.206;23.550;2023-04-06T02:53:50;22.95;;;13.77;;
21360;SDS011;10839;43.206;23.550;2023-04-06T02:56:15;19.90;;;13.10;;
21360;SDS011;10839;43.206;23.550;2023-04-06T02:58:47;18.27;;;12.65;;
21360;SDS011;10839;43.206;23.550;2023-04-06T03:01:13;20.35;;;12.77;;
21360;SDS011;10839;43.206;23.550;2023-04-06T03:03:40;20.35;;;12.73;;
21360;SDS011;10839;43.206;23.550;2023-04-06T03:06:12;18.52;;;12.40;;
21360;SDS011;10839;43.206;23.550;2023-04-06T03:08:39;20.20;;;12.95;;
21360;SDS011;10839;43.206;23.550;2023-04-06T03:11:05;19.83;;;12.30;;
21360;SDS011;10839;43.206;23.550;2023-04-06T03:13:37;29.10;;;15.40;;
21360;SDS011;10839;43.206;23.550;2023-04-06T03:16:06;39.42;;;19.45;;
21360;SDS011;10839;43.206;23.550;2023-04-06T03:18:33;44.17;;;23.35;;
21360;SDS011;10839;43.206;23.550;2023-04-06T03:20:59;47.53;;;24.38;;
21360;SDS011;10839;43.206;23.550;2023-04-06T03:23:38;82.32;;;39.88;;
21360;SDS011;10839;43.206;23.550;2023-04-06T03:26:05;193.75;;;89.45;;
21360;SDS011;10839;43.206;23.550;2023-04-06T03:28:31;99.55;;;46.13;;
21360;SDS011;10839;43.206;23.550;2023-04-06T03:31:03;36.75;;;21.02;;
21360;SDS011;10839;43.206;23.550;2023-04-06T03:33:45;27.90;;;16.45;;
21360;SDS011;10839;43.206;23.550;2023-04-06T03:36:21;23.70;;;13.93;;
21360;SDS011;10839;43.206;23.550;2023-04-06T03:38:47;19.13;;;12.27;;
21360;SDS011;10839;43.206;23.550;2023-04-06T03:41:14;22.13;;;12.30;;
21360;SDS011;10839;43.206;23.550;2023-04-06T03:43:45;18.58;;;11.10;;
21360;SDS011;10839;43.206;23.550;2023-04-06T03:46:11;16.73;;;11.20;;
21360;SDS011;10839;43.206;23.550;2023-04-06T03:48:37;18.27;;;10.93;;
21360;SDS011;10839;43.206;23.550;2023-04-06T03:51:05;13.90;;;9.00;;
21360;SDS011;10839;43.206;23.550;2023-04-06T03:53:35;15.85;;;9.40;;
21360;SDS011;10839;43.206;23.550;2023-04-06T03:56:02;16.30;;;10.15;;
21360;SDS011;10839;43.206;23.550;2023-04-06T03:58:28;15.70;;;10.85;;
21360;SDS011;10839;43.206;23.550;2023-04-06T04:00:54;34.58;;;18.77;;
21360;SDS011;10839;43.206;23.550;2023-04-06T04:03:20;93.75;;;44.15;;
21360;SDS011;10839;43.206;23.550;2023-04-06T04:05:49;63.97;;;31.98;;
21360;SDS011;10839;43.206;23.550;2023-04-06T04:08:16;39.67;;;21.73;;
21360;SDS011;10839;43.206;23.550;2023-04-06T04:10:42;32.95;;;17.45;;
21360;SDS011;10839;43.206;23.550;2023-04-06T04:13:08;17.65;;;10.60;;
21360;SDS011;10839;43.206;23.550;2023-04-06T04:15:34;19.17;;;11.00;;
21360;SDS011;10839;43.206;23.550;2023-04-06T04:18:00;18.20;;;10.38;;
21360;SDS011;10839;43.206;23.550;2023-04-06T04:20:26;18.25;;;10.75;;
21360;SDS011;10839;43.206;23.550;2023-04-06T04:22:51;21.27;;;11.50;;
21360;SDS011;10839;43.206;23.550;2023-04-06T04:25:18;19.10;;;11.45;;
21360;SDS011;10839;43.206;23.550;2023-04-06T04:27:47;77.43;;;30.52;;
21360;SDS011;10839;43.206;23.550;2023-04-06T04:30:13;57.03;;;22.52;;
21360;SDS011;10839;43.206;23.550;2023-04-06T04:32:40;32.30;;;15.18;;
21360;SDS011;10839;43.206;23.550;2023-04-06T04:35:08;23.73;;;13.20;;
21360;SDS011;10839;43.206;23.550;2023-04-06T04:37:38;22.65;;;11.52;;
21360;SDS011;10839;43.206;23.550;2023-04-06T04:40:04;29.60;;;13.05;;
21360;SDS011;10839;43.206;23.550;2023-04-06T04:42:41;16.98;;;10.25;;
21360;SDS011;10839;43.206;23.550;2023-04-06T04:45:12;20.15;;;10.07;;
21360;SDS011;10839;43.206;23.550;2023-04-06T04:47:40;22.27;;;10.65;;
21360;SDS011;10839;43.206;23.550;2023-04-06T04:50:07;21.77;;;10.85;;
21360;SDS011;10839;43.206;23.550;2023-04-06T04:52:37;18.95;;;11.15;;
21360;SDS011;10839;43.206;23.550;2023-04-06T04:55:19;28.17;;;11.63;;
21360;SDS011;10839;43.206;23.550;2023-04-06T04:57:48;21.55;;;10.38;;
21360;SDS011;10839;43.206;23.550;2023-04-06T05:00:16;15.32;;;8.90;;
21360;SDS011;10839;43.206;23.550;2023-04-06T05:02:44;16.80;;;9.05;;
21360;SDS011;10839;43.206;23.550;2023-04-06T05:05:17;21.00;;;10.45;;
21360;SDS011;10839;43.206;23.550;2023-04-06T05:07:43;27.50;;;8.98;;
21360;SDS011;10839;43.206;23.550;2023-04-06T05:10:16;12.57;;;7.68;;
21360;SDS011;10839;43.206;23.550;2023-04-06T05:12:51;19.42;;;10.20;;
21360;SDS011;10839;43.206;23.550;2023-04-06T05:15:17;17.20;;;8.25;;
21360;SDS011;10839;43.206;23.550;2023-04-06T05:17:43;13.68;;;6.95;;
21360;SDS011;10839;43.206;23.550;2023-04-06T05:20:14;11.02;;;6.65;;
21360;SDS011;10839;43.206;23.550;2023-04-06T05:22:47;15.30;;;7.28;;
21360;SDS011;10839;43.206;23.550;2023-04-06T05:25:14;17.55;;;7.78;;
21360;SDS011;10839;43.206;23.550;2023-04-06T05:27:41;16.05;;;7.53;;
21360;SDS011;10839;43.206;23.550;2023-04-06T05:30:19;12.68;;;6.40;;
21360;SDS011;10839;43.206;23.550;2023-04-06T05:32:47;12.32;;;6.80;;
21360;SDS011;10839;43.206;23.550;2023-04-06T05:35:13;11.45;;;7.07;;
21360;SDS011;10839;43.206;23.550;2023-04-06T05:37:43;14.80;;;7.10;;
21360;SDS011;10839;43.206;23.550;2023-04-06T05:40:09;12.63;;;6.53;;
21360;SDS011;10839;43.206;23.550;2023-04-06T05:42:39;12.60;;;7.10;;
21360;SDS011;10839;43.206;23.550;2023-04-06T05:45:06;9.35;;;6.15;;
21360;SDS011;10839;43.206;23.550;2023-04-06T05:47:33;15.32;;;7.75;;
21360;SDS011;10839;43.206;23.550;2023-04-06T05:50:14;15.55;;;7.18;;
21360;SDS011;10839;43.206;23.550;2023-04-06T05:52:41;11.73;;;7.10;;
21360;SDS011;10839;43.206;23.550;2023-04-06T05:55:10;13.25;;;7.28;;
21360;SDS011;10839;43.206;23.550;2023-04-06T05:57:40;13.82;;;7.72;;
21360;SDS011;10839;43.206;23.550;2023-04-06T06:00:07;10.65;;;6.97;;
21360;SDS011;10839;43.206;23.550;2023-04-06T06:02:37;16.70;;;7.75;;
21360;SDS011;10839;43.206;23.550;2023-04-06T06:05:08;17.35;;;7.35;;
21360;SDS011;10839;43.206;23.550;2023-04-06T06:07:35;13.07;;;7.40;;
21360;SDS011;10839;43.206;23.550;2023-04-06T06:10:01;12.30;;;6.75;;
21360;SDS011;10839;43.206;23.550;2023-04-06T06:12:31;11.35;;;7.13;;
21360;SDS011;10839;43.206;23.550;2023-04-06T06:14:59;12.88;;;7.15;;
21360;SDS011;10839;43.206;23.550;2023-04-06T06:17:27;13.30;;;8.20;;
21360;SDS011;10839;43.206;23.550;2023-04-06T06:19:54;16.55;;;9.02;;
21360;SDS011;10839;43.206;23.550;2023-04-06T06:22:20;15.55;;;8.32;;
21360;SDS011;10839;43.206;23.550;2023-04-06T06:24:46;13.20;;;8.88;;
21360;SDS011;10839;43.206;23.550;2023-04-06T06:27:14;15.80;;;10.05;;
21360;SDS011;10839;43.206;23.550;2023-04-06T06:29:40;13.15;;;8.70;;
21360;SDS011;10839;43.206;23.550;2023-04-06T06:32:06;17.70;;;9.23;;
21360;SDS011;10839;43.206;23.550;2023-04-06T06:34:35;18.17;;;9.50;;
21360;SDS011;10839;43.206;23.550;2023-04-06T06:37:03;14.15;;;9.13;;
21360;SDS011;10839;43.206;23.550;2023-04-06T06:39:30;16.15;;;8.95;;
21360;SDS011;10839;43.206;23.550;2023-04-06T06:41:56;13.02;;;7.22;;
21360;SDS011;10839;43.206;23.550;2023-04-06T06:44:41;12.20;;;7.88;;
21360;SDS011;10839;43.206;23.550;2023-04-06T06:47:07;13.63;;;8.88;;
21360;SDS011;10839;43.206;23.550;2023-04-06T06:49:33;10.90;;;7.10;;
21360;SDS011;10839;43.206;23.550;2023-04-06T06:51:59;14.95;;;7.25;;
21360;SDS011;10839;43.206;23.550;2023-04-06T06:54:25;17.52;;;8.35;;
21360;SDS011;10839;43.206;23.550;2023-04-06T06:56:51;17.40;;;8.48;;
21360;SDS011;10839;43.206;23.550;2023-04-06T06:59:16;11.05;;;7.35;;
21360;SDS011;10839;43.206;23.550;2023-04-06T07:01:43;10.10;;;5.75;;
21360;SDS011;10839;43.206;23.550;2023-04-06T07:04:09;8.50;;;5.40;;
21360;SDS011;10839;43.206;23.550;2023-04-06T07:06:35;20.55;;;8.63;;
21360;SDS011;10839;43.206;23.550;2023-04-06T07:09:02;25.67;;;11.13;;
21360;SDS011;10839;43.206;23.550;2023-04-06T07:11:28;28.02;;;11.77;;
21360;SDS011;10839;43.206;23.550;2023-04-06T07:13:55;22.85;;;10.85;;
21360;SDS011;10839;43.206;23.550;2023-04-06T07:16:21;21.92;;;9.35;;
21360;SDS011;10839;43.206;23.550;2023-04-06T07:18:47;18.15;;;8.40;;
21360;SDS011;10839;43.206;23.550;2023-04-06T07:21:13;17.05;;;8.73;;
21360;SDS011;10839;43.206;23.550;2023-04-06T07:23:39;13.85;;;7.95;;
21360;SDS011;10839;43.206;23.550;2023-04-06T07:26:06;17.50;;;8.27;;
21360;SDS011;10839;43.206;23.550;2023-04-06T07:28:32;10.07;;;6.40;;
21360;SDS011;10839;43.206;23.550;2023-04-06T07:31:00;15.43;;;7.90;;
21360;SDS011;10839;43.206;23.550;2023-04-06T07:33:27;12.32;;;6.85;;
21360;SDS011;10839;43.206;23.550;2023-04-06T07:35:56;12.65;;;6.72;;
21360;SDS011;10839;43.206;23.550;2023-04-06T07:38:23;15.35;;;8.00;;
21360;SDS011;10839;43.206;23.550;2023-04-06T07:40:51;11.98;;;6.28;;
21360;SDS011;10839;43.206;23.550;2023-04-06T07:43:17;10.88;;;6.20;;
21360;SDS011;10839;43.206;23.550;2023-04-06T07:45:43;10.95;;;6.00;;
21360;SDS011;10839;43.206;23.550;2023-04-06T07:48:10;11.88;;;5.85;;
21360;SDS011;10839;43.206;23.550;2023-04-06T07:50:36;14.63;;;6.15;;
21360;SDS011;10839;43.206;23.550;2023-04-06T07:53:03;15.27;;;8.55;;
21360;SDS011;10839;43.206;23.550;2023-04-06T07:55:29;11.00;;;5.95;;
21360;SDS011;10839;43.206;23.550;2023-04-06T07:57:55;9.25;;;5.93;;
21360;SDS011;10839;43.206;23.550;2023-04-06T08:00:21;9.48;;;6.20;;
21360;SDS011;10839;43.206;23.550;2023-04-06T08:02:47;7.85;;;5.90;;
21360;SDS011;10839;43.206;23.550;2023-04-06T08:05:13;11.05;;;6.00;;
21360;SDS011;10839;43.206;23.550;2023-04-06T08:07:38;8.75;;;5.03;;
21360;SDS011;10839;43.206;23.550;2023-04-06T08:10:05;10.05;;;4.85;;
21360;SDS011;10839;43.206;23.550;2023-04-06T08:12:32;7.95;;;5.10;;
21360;SDS011;10839;43.206;23.550;2023-04-06T08:14:59;8.55;;;5.40;;
21360;SDS011;10839;43.206;23.550;2023-04-06T08:17:25;7.97;;;5.30;;
21360;SDS011;10839;43.206;23.550;2023-04-06T08:19:52;7.95;;;5.38;;
21360;SDS011;10839;43.206;23.550;2023-04-06T08:22:18;10.43;;;5.72;;
21360;SDS011;10839;43.206;23.550;2023-04-06T08:24:44;9.57;;;5.97;;
21360;SDS011;10839;43.206;23.550;2023-04-06T08:27:10;15.15;;;6.60;;
21360;SDS011;10839;43.206;23.550;2023-04-06T08:29:36;17.50;;;10.65;;
21360;SDS011;10839;43.206;23.550;2023-04-06T08:32:02;14.50;;;9.52;;
21360;SDS011;10839;43.206;23.550;2023-04-06T08:34:31;17.42;;;9.80;;
21360;SDS011;10839;43.206;23.550;2023-04-06T08:36:58;11.43;;;7.03;;
21360;SDS011;10839;43.206;23.550;2023-04-06T08:39:24;8.60;;;5.80;;
21360;SDS011;10839;43.206;23.550;2023-04-06T08:41:51;10.23;;;5.82;;
21360;SDS011;10839;43.206;23.550;2023-04-06T08:44:18;5.97;;;4.88;;
21360;SDS011;10839;43.206;23.550;2023-04-06T08:46:44;10.25;;;4.90;;
21360;SDS011;10839;43.206;23.550;2023-04-06T08:49:10;9.52;;;6.88;;
21360;SDS011;10839;43.206;23.550;2023-04-06T08:51:36;14.80;;;9.50;;
21360;SDS011;10839;43.206;23.550;2023-04-06T08:54:04;22.45;;;12.85;;
21360;SDS011;10839;43.206;23.550;2023-04-06T08:56:30;14.65;;;9.85;;
21360;SDS011;10839;43.206;23.550;2023-04-06T08:58:56;9.77;;;6.40;;
21360;SDS011;10839;43.206;23.550;2023-04-06T09:01:26;12.70;;;7.78;;
21360;SDS011;10839;43.206;23.550;2023-04-06T09:03:57;10.57;;;5.15;;
21360;SDS011;10839;43.206;23.550;2023-04-06T09:06:25;9.98;;;5.97;;
21360;SDS011;10839;43.206;23.550;2023-04-06T09:08:56;12.13;;;6.25;;
21360;SDS011;10839;43.206;23.550;2023-04-06T09:11:23;9.38;;;5.47;;
21360;SDS011;10839;43.206;23.550;2023-04-06T09:16:19;11.52;;;5.20;;
21360;SDS011;10839;43.206;23.550;2023-04-06T09:18:46;11.02;;;4.75;;
21360;SDS011;10839;43.206;23.550;2023-04-06T09:21:13;9.27;;;4.68;;
21360;SDS011;10839;43.206;23.550;2023-04-06T09:23:42;6.10;;;4.20;;
21360;SDS011;10839;43.206;23.550;2023-04-06T09:26:09;13.32;;;5.25;;
21360;SDS011;10839;43.206;23.550;2023-04-06T09:28:49;7.82;;;4.72;;
21360;SDS011;10839;43.206;23.550;2023-04-06T09:31:26;6.85;;;4.78;;
21360;SDS011;10839;43.206;23.550;2023-04-06T09:33:58;16.63;;;10.95;;
21360;SDS011;10839;43.206;23.550;2023-04-06T09:36:32;20.52;;;12.65;;
21360;SDS011;10839;43.206;23.550;2023-04-06T09:39:02;16.73;;;9.70;;
21360;SDS011;10839;43.206;23.550;2023-04-06T09:41:30;17.85;;;9.63;;
21360;SDS011;10839;43.206;23.550;2023-04-06T09:44:10;10.30;;;6.60;;
21360;SDS011;10839;43.206;23.550;2023-04-06T09:46:38;10.95;;;5.50;;
21360;SDS011;10839;43.206;23.550;2023-04-06T09:49:06;10.60;;;6.15;;
21360;SDS011;10839;43.206;23.550;2023-04-06T09:51:36;7.95;;;5.93;;
21360;SDS011;10839;43.206;23.550;2023-04-06T09:54:11;23.17;;;13.65;;
21360;SDS011;10839;43.206;23.550;2023-04-06T09:56:48;12.15;;;8.35;;
21360;SDS011;10839;43.206;23.550;2023-04-06T10:04:37;10.30;;;5.55;;
21360;SDS011;10839;43.206;23.550;2023-04-06T10:07:09;9.77;;;4.65;;
21360;SDS011;10839;43.206;23.550;2023-04-06T10:09:40;10.32;;;5.43;;
21360;SDS011;10839;43.206;23.550;2023-04-06T10:12:09;12.93;;;6.32;;
21360;SDS011;10839;43.206;23.550;2023-04-06T10:14:36;14.15;;;5.57;;
21360;SDS011;10839;43.206;23.550;2023-04-06T10:17:06;17.27;;;9.48;;
21360;SDS011;10839;43.206;23.550;2023-04-06T10:19:34;14.27;;;6.65;;
21360;SDS011;10839;43.206;23.550;2023-04-06T10:22:02;10.88;;;6.40;;
21360;SDS011;10839;43.206;23.550;2023-04-06T10:24:30;11.65;;;6.65;;
21360;SDS011;10839;43.206;23.550;2023-04-06T10:26:57;11.73;;;6.57;;
21360;SDS011;10839;43.206;23.550;2023-04-06T10:29:41;11.25;;;6.50;;
21360;SDS011;10839;43.206;23.550;2023-04-06T10:32:11;12.23;;;6.40;;
21360;SDS011;10839;43.206;23.550;2023-04-06T10:34:37;13.45;;;6.57;;
21360;SDS011;10839;43.206;23.550;2023-04-06T10:37:13;10.57;;;5.70;;
21360;SDS011;10839;43.206;23.550;2023-04-06T10:39:46;8.68;;;5.60;;
21360;SDS011;10839;43.206;23.550;2023-04-06T10:42:24;15.68;;;6.15;;
21360;SDS011;10839;43.206;23.550;2023-04-06T10:44:50;14.55;;;6.22;;
21360;SDS011;10839;43.206;23.550;2023-04-06T10:47:17;15.27;;;7.10;;
21360;SDS011;10839;43.206;23.550;2023-04-06T10:49:43;12.30;;;7.20;;
21360;SDS011;10839;43.206;23.550;2023-04-06T10:52:09;13.57;;;6.50;;
21360;SDS011;10839;43.206;23.550;2023-04-06T10:54:38;14.10;;;5.57;;
21360;SDS011;10839;43.206;23.550;2023-04-06T10:57:08;10.98;;;5.60;;
21360;SDS011;10839;43.206;23.550;2023-04-06T10:59:35;6.85;;;5.30;;
21360;SDS011;10839;43.206;23.550;2023-04-06T11:02:01;7.70;;;5.40;;
21360;SDS011;10839;43.206;23.550;2023-04-06T11:04:26;10.23;;;5.95;;
21360;SDS011;10839;43.206;23.550;2023-04-06T11:06:52;11.48;;;6.45;;
21360;SDS011;10839;43.206;23.550;2023-04-06T11:09:24;14.90;;;7.03;;
21360;SDS011;10839;43.206;23.550;2023-04-06T11:11:54;8.27;;;5.63;;
21360;SDS011;10839;43.206;23.550;2023-04-06T11:14:21;9.48;;;5.53;;
21360;SDS011;10839;43.206;23.550;2023-04-06T11:16:47;12.45;;;6.22;;
21360;SDS011;10839;43.206;23.550;2023-04-06T11:19:15;10.90;;;6.80;;
21360;SDS011;10839;43.206;23.550;2023-04-06T11:21:43;10.13;;;6.18;;
21360;SDS011;10839;43.206;23.550;2023-04-06T11:24:16;13.30;;;6.75;;
21360;SDS011;10839;43.206;23.550;2023-04-06T11:29:19;11.57;;;6.22;;
21360;SDS011;10839;43.206;23.550;2023-04-06T11:31:51;12.35;;;6.85;;
21360;SDS011;10839;43.206;23.550;2023-04-06T11:34:20;11.85;;;6.60;;
21360;SDS011;10839;43.206;23.550;2023-04-06T11:36:48;10.10;;;6.40;;
21360;SDS011;10839;43.206;23.550;2023-04-06T11:39:20;10.65;;;6.45;;
21360;SDS011;10839;43.206;23.550;2023-04-06T11:41:49;10.70;;;5.45;;
21360;SDS011;10839;43.206;23.550;2023-04-06T11:44:38;11.27;;;6.00;;
21360;SDS011;10839;43.206;23.550;2023-04-06T11:47:14;9.52;;;6.30;;
21360;SDS011;10839;43.206;23.550;2023-04-06T11:49:41;12.63;;;7.20;;
21360;SDS011;10839;43.206;23.550;2023-04-06T11:52:21;12.43;;;7.28;;
21360;SDS011;10839;43.206;23.550;2023-04-06T11:54:50;15.32;;;9.32;;
21360;SDS011;10839;43.206;23.550;2023-04-06T11:57:18;12.45;;;8.27;;
21360;SDS011;10839;43.206;23.550;2023-04-06T11:59:45;16.10;;;8.95;;
21360;SDS011;10839;43.206;23.550;2023-04-06T12:02:11;17.98;;;9.20;;
21360;SDS011;10839;43.206;23.550;2023-04-06T12:04:37;13.85;;;7.53;;
21360;SDS011;10839;43.206;23.550;2023-04-06T12:07:03;13.18;;;7.55;;
21360;SDS011;10839;43.206;23.550;2023-04-06T12:09:30;15.15;;;6.78;;
21360;SDS011;10839;43.206;23.550;2023-04-06T12:11:57;12.98;;;8.10;;
21360;SDS011;10839;43.206;23.550;2023-04-06T12:14:23;12.20;;;7.45;;
21360;SDS011;10839;43.206;23.550;2023-04-06T12:16:49;13.75;;;8.23;;
21360;SDS011;10839;43.206;23.550;2023-04-06T12:19:15;13.18;;;8.43;;
21360;SDS011;10839;43.206;23.550;2023-04-06T12:21:41;11.80;;;7.90;;
21360;SDS011;10839;43.206;23.550;2023-04-06T12:24:07;13.25;;;8.55;;
21360;SDS011;10839;43.206;23.550;2023-04-06T12:26:33;14.13;;;8.32;;
21360;SDS011;10839;43.206;23.550;2023-04-06T12:29:00;18.38;;;11.68;;
21360;SDS011;10839;43.206;23.550;2023-04-06T12:31:34;13.50;;;8.70;;
21360;SDS011;10839;43.206;23.550;2023-04-06T12:34:01;12.13;;;7.43;;
21360;SDS011;10839;43.206;23.550;2023-04-06T12:36:28;14.55;;;8.98;;
21360;SDS011;10839;43.206;23.550;2023-04-06T12:38:54;17.25;;;10.45;;
21360;SDS011;10839;43.206;23.550;2023-04-06T12:41:20;26.50;;;12.82;;
21360;SDS011;10839;43.206;23.550;2023-04-06T12:43:46;27.70;;;11.30;;
21360;SDS011;10839;43.206;23.550;2023-04-06T12:46:15;20.10;;;10.50;;
21360;SDS011;10839;43.206;23.550;2023-04-06T12:48:41;17.98;;;10.77;;
21360;SDS011;10839;43.206;23.550;2023-04-06T12:51:07;19.63;;;9.60;;
21360;SDS011;10839;43.206;23.550;2023-04-06T12:53:33;16.38;;;9.48;;
21360;SDS011;10839;43.206;23.550;2023-04-06T12:56:00;19.88;;;10.32;;
21360;SDS011;10839;43.206;23.550;2023-04-06T12:58:27;17.25;;;9.82;;
21360;SDS011;10839;43.206;23.550;2023-04-06T13:00:54;22.02;;;10.90;;
21360;SDS011;10839;43.206;23.550;2023-04-06T13:03:23;32.78;;;14.35;;
21360;SDS011;10839;43.206;23.550;2023-04-06T13:05:49;31.77;;;15.73;;
21360;SDS011;10839;43.206;23.550;2023-04-06T13:08:17;22.20;;;11.40;;
21360;SDS011;10839;43.206;23.550;2023-04-06T13:10:46;17.23;;;10.07;;
21360;SDS011;10839;43.206;23.550;2023-04-06T13:13:16;16.58;;;8.95;;
21360;SDS011;10839;43.206;23.550;2023-04-06T13:15:43;18.83;;;9.95;;
21360;SDS011;10839;43.206;23.550;2023-04-06T13:18:10;13.48;;;8.98;;
21360;SDS011;10839;43.206;23.550;2023-04-06T13:20:36;15.70;;;9.05;;
21360;SDS011;10839;43.206;23.550;2023-04-06T13:23:02;13.95;;;9.02;;
21360;SDS011;10839;43.206;23.550;2023-04-06T13:25:28;16.45;;;9.75;;
21360;SDS011;10839;43.206;23.550;2023-04-06T13:27:55;17.83;;;10.82;;
21360;SDS011;10839;43.206;23.550;2023-04-06T13:30:21;19.98;;;12.38;;
21360;SDS011;10839;43.206;23.550;2023-04-06T13:32:47;20.52;;;12.60;;
21360;SDS011;10839;43.206;23.550;2023-04-06T13:35:13;16.13;;;10.90;;
21360;SDS011;10839;43.206;23.550;2023-04-06T13:37:39;19.33;;;11.48;;
21360;SDS011;10839;43.206;23.550;2023-04-06T13:40:05;13.90;;;9.70;;
21360;SDS011;10839;43.206;23.550;2023-04-06T13:42:31;17.00;;;9.43;;
21360;SDS011;10839;43.206;23.550;2023-04-06T13:44:58;16.33;;;9.77;;
21360;SDS011;10839;43.206;23.550;2023-04-06T13:47:24;16.92;;;9.20;;
21360;SDS011;10839;43.206;23.550;2023-04-06T13:49:50;13.40;;;9.55;;
21360;SDS011;10839;43.206;23.550;2023-04-06T13:52:20;13.18;;;9.32;;
21360;SDS011;10839;43.206;23.550;2023-04-06T13:54:46;14.02;;;9.35;;
21360;SDS011;10839;43.206;23.550;2023-04-06T13:57:12;16.63;;;10.38;;
21360;SDS011;10839;43.206;23.550;2023-04-06T13:59:38;17.50;;;10.57;;
21360;SDS011;10839;43.206;23.550;2023-04-06T14:02:05;23.70;;;12.82;;
21360;SDS011;10839;43.206;23.550;2023-04-06T14:04:32;22.23;;;11.40;;
21360;SDS011;10839;43.206;23.550;2023-04-06T14:07:00;19.88;;;11.25;;
21360;SDS011;10839;43.206;23.550;2023-04-06T14:09:27;23.45;;;12.10;;
21360;SDS011;10839;43.206;23.550;2023-04-06T14:11:54;22.08;;;12.55;;
21360;SDS011;10839;43.206;23.550;2023-04-06T14:14:20;21.30;;;12.35;;
21360;SDS011;10839;43.206;23.550;2023-04-06T14:16:46;14.75;;;10.63;;
21360;SDS011;10839;43.206;23.550;2023-04-06T14:19:14;29.17;;;14.60;;
21360;SDS011;10839;43.206;23.550;2023-04-06T14:21:45;22.52;;;12.40;;
21360;SDS011;10839;43.206;23.550;2023-04-06T14:24:11;23.40;;;11.60;;
21360;SDS011;10839;43.206;23.550;2023-04-06T14:26:39;19.38;;;11.48;;
21360;SDS011;10839;43.206;23.550;2023-04-06T14:29:07;25.90;;;14.25;;
21360;SDS011;10839;43.206;23.550;2023-04-06T14:31:33;51.92;;;26.63;;